Tiempo atmosférico en la estación meteorológica de Zaorejas, Guadalajara (1230 m.)



Fecha
DESCASC
Temp. máxima en grados centígrados (hora)
DESCASC
Temp. mínima en grados centígrados (hora)
DESCASC
Temp. media en grados centígrados
DESCASC
Racha de viento máxima en m/sg (hora)
DESCASC
Velocidad máxima media en intervalos de 10 minutos(hora)
DESCASC
Precipitaciones diarias en mm
DESCASC
Precipitaciones de 00:00 a 06:00 en mm
DESCASC
Precipitaciones de 06:00 a 12:00 en mm
DESCASC
Precipitaciones de 12:00 a 18:00 en mm
DESCASC
Precipitaciones de 18:00 a 24:00 en mm
DESCASC
05-04-2020 16.3 (17:20) 5.7 (06:50) 11 10.28 (15:00) 5.28 (03:30) 0 0 0 0 0
04-04-2020 17.3 (16:40) -0.4 (08:00) 8.4 9.72 (18:20) 5 (18:00) 0 0 0 0 0
03-04-2020 13.7 (17:40) -1.1 (08:10) 6.3 5.28 (01:20) 2.78 (01:10) 0 0 0 0 0
02-04-2020 9.3 (16:10) 1.8 (00:00) 5.6 7.22 (17:20) 5 (18:00) 1.8 0 0.2 1.4 0.2
01-04-2020 10.5 (16:20) 3.5 (00:00) 7 9.17 (15:10) 4.44 (17:40) 11 5.6 2.6 2.6 0.2
31-03-2020 8.2 (16:00) -3.5 (-00:0) 2.3 10.56 (00:10) 4.72 (00:10) 24.4 0 0 22.4 2
30-03-2020 5.2 (00:00) -2.4 (-00:0) 1.4 8.89 (23:59) 5 (08:30) 0 0 0 0 0
29-03-2020 15.4 (16:00) 0.1 (00:00) 7.7 7.5 (20:40) 4.44 (20:50) 0 0 0 0 0
28-03-2020 12.7 (14:40) -2.4 (-00:0) 5.1 8.33 (13:40) 4.72 (16:10) 0 0 0 0 0
27-03-2020 8.9 (15:20) -2.4 (-00:0) 3.2 8.61 (16:20) 4.72 (17:10) 1.4 0 1.4 0 0
26-03-2020 7.7 (16:30) -0.9 (-00:0) 3.4 11.11 (14:40) 6.11 (13:40) 0 0 0 0 0
25-03-2020 11 (16:20) 1.2 (00:00) 6.1 9.72 (17:40) 5.56 (17:40) 0.4 0 0 0.4 0
24-03-2020 9.3 (15:30) 1.9 (00:00) 5.6 11.11 (11:30) 4.72 (11:30) 0.2 0 0 0.2 0
23-03-2020 9.7 (17:00) 3 (00:00) 6.3 7.5 (15:10) 3.89 (15:10) 5 0 0.2 3 1.8
22-03-2020 9.2 (15:30) 3.1 (03:10) 6.1 8.33 (16:40) 3.61 (16:40) 6.6 3.2 1.2 0 2.2
21-03-2020 8.3 (15:00) 3.2 (00:00) 5.8 5.83 (13:00) 3.06 (13:40) 3 0 0 0 3
20-03-2020 13.7 (16:10) 3.7 (00:00) 8.7 5.83 (17:20) 3.33 (18:10) 0 0 0 0 0
19-03-2020 15.7 (16:40) 1.8 (00:00) 8.7 6.11 (19:50) 3.06 (20:10) 0 0 0 0 0
18-03-2020 14.2 (14:30) 4.6 (00:00) 9.4 6.94 (02:50) 3.61 (02:50) 0.2 0 0.2 0 0
17-03-2020 9.7 (14:10) 1.5 (00:00) 5.6 9.17 (02:20) 5.28 (02:20) 24 15.2 8.4 0.4 0
16-03-2020 6.5 (00:00) 0.1 (00:00) 3.3 10.56 (02:40) 5.28 (02:40) 22.8 10.2 5 4.8 2.8
15-03-2020 16.1 (14:20) 5.8 (00:00) 11 14.17 (21:40) 7.22 (21:50) 8.4 0 0 0.6 7.8
14-03-2020 18.4 (16:00) 3.9 (00:00) 11.1 6.39 (13:50) 3.06 (18:10) 0 0 0 0 0
13-03-2020 20.6 (15:30) 6.5 (23:59) 13.6 7.5 (14:50) 3.89 (14:50) 0 0 0 0 0
12-03-2020 22.7 (14:20) 8.8 (00:00) 15.8 11.39 (15:00) 5.83 (15:20) 0 0 0 0 0
11-03-2020 22.4 (15:40) 5.8 (00:00) 14.1 7.78 (15:20) 4.17 (20:40) 0 0 0 0 0
10-03-2020 18.9 (15:40) 4.2 (00:00) 11.5 7.22 (22:30) 4.17 (22:10) 0 0 0 0 0
09-03-2020 11.4 (16:20) 2.8 (00:00) 7.1 8.89 (06:50) 4.72 (12:40) 0 0 0 0 0

Gráficas

Temp. máximas Temp. mínimas Temp. medias Precipitaciones Rachas de viento máximas Velocidades máximas media en intervalos de 10 minutos

Datos horarios

Fecha y hora oficial Temperatura (ºC) Velocidad del viento (km/h) Dirección del viento Racha (km/h) Dirección de racha Precipitación (mm) Presión (hPa) Tendencia (hPa) Humedad (%)
2020-04-07 23:00:00 9.9 0 Calma 14 Sur 0 -- -- 89
2020-04-07 22:00:00 10.3 10 Sudoeste 24 Sudoeste 0 -- -- 90
2020-04-07 21:00:00 11 14 Sudoeste 28 Sudoeste 0 -- -- 87
2020-04-07 20:00:00 11.8 17 Sudoeste 32 Sudoeste 0 -- -- 80
2020-04-07 19:00:00 13.4 12 Sudoeste 25 Sudoeste 0 -- -- 74
2020-04-07 18:00:00 14.6 14 Sudoeste 28 Sudoeste 0 -- -- 65
2020-04-07 17:00:00 14.6 10 Sudoeste 26 Sudoeste 0 -- -- 68
2020-04-07 16:00:00 14.1 13 Sudoeste 26 Sur 0 -- -- 75
2020-04-07 15:00:00 14.2 13 Sudoeste 28 Sudoeste 0 -- -- 72
2020-04-07 14:00:00 13.7 10 Sudoeste 19 Oeste 0 -- -- 74
2020-04-07 13:00:00 12.1 9 Sudoeste 24 Sudoeste 0 -- -- 84
2020-04-07 12:00:00 11.2 11 Sudoeste 23 Sur 0 -- -- 87
2020-04-07 11:00:00 10.1 11 Sudoeste 22 Sur 0 -- -- 93
2020-04-07 10:00:00 9 9 Sur 17 Sur 0 -- -- 94
2020-04-07 09:00:00 8.2 3 Sur 8 Sur 0 -- -- 95
2020-04-07 08:00:00 8 2 Sur 11 Sur 0.2 -- -- 94
2020-04-07 07:00:00 8.3 6 Sur 9 Sudoeste 1.4 -- -- 94
2020-04-07 06:00:00 8.8 4 Oeste 16 Sudoeste 5 -- -- 96
2020-04-07 05:00:00 9.5 7 Sudoeste 19 Sudoeste 0.4 -- -- 95
2020-04-07 04:00:00 9.6 5 Sur 13 Sur 0.2 -- -- 95
2020-04-07 03:00:00 9.7 3 Sur 15 Sur 0.4 -- -- 95
2020-04-07 02:00:00 9.7 7 Sudoeste 13 Sudoeste 1 -- -- 92
2020-04-07 01:00:00 9.9 0 Calma 10 Sur 0 -- -- 92
2020-04-07 00:00:00 9.9 3 Sur 12 Sur 0 -- -- 93
2020-04-06 23:00:00 10.2 8 Sur 18 Sudoeste 0.2 -- -- 93
2020-04-06 22:00:00 10.5 6 Sudoeste 18 Sudoeste 0 -- -- 90
2020-04-06 21:00:00 10.8 11 Sur 18 Sur 0 -- -- 88
2020-04-06 20:00:00 11.4 10 Sudoeste 25 Sudoeste 0 -- -- 79
2020-04-06 19:00:00 12.4 9 Sudoeste 20 Sudoeste 0 -- -- 78
2020-04-06 18:00:00 12.5 8 Sudoeste 18 Sudoeste 0 -- -- 80
2020-04-06 17:00:00 12.2 9 Sudoeste 21 Sudoeste 0.2 -- -- 85
2020-04-06 16:00:00 11.3 11 Sudoeste 28 Sudoeste 0.4 -- -- 91
2020-04-06 15:00:00 11 12 Sudoeste 23 Sudoeste 0.2 -- -- 92
2020-04-06 14:00:00 11.5 14 Sudoeste 28 Sudoeste 0 -- -- 88
2020-04-06 13:00:00 11.1 16 Sudoeste 31 Sudoeste 0.4 -- -- 89
2020-04-06 12:00:00 11 14 Sudoeste 29 Sudoeste 0 -- -- 87
2020-04-06 11:00:00 10.9 14 Sudoeste 27 Sudoeste 0 -- -- 84
2020-04-06 10:00:00 10.1 15 Sudoeste 27 Sur 0 -- -- 85
2020-04-06 09:00:00 8.9 8 Sudoeste 22 Sudoeste 0 -- -- 90
2020-04-06 08:00:00 8.3 12 Sudoeste 27 Sudoeste 0 -- -- 91
2020-04-06 07:00:00 8.3 15 Sudoeste 27 Sur 0 -- -- 90
2020-04-06 06:00:00 8.2 12 Sudoeste 30 Sudoeste 0 -- -- 90
2020-04-06 05:00:00 8.6 17 Sur 27 Sur 0 -- -- 88
2020-04-06 04:00:00 8.4 17 Sur 28 Sur 0 -- -- 89
2020-04-06 03:00:00 9.1 14 Sudoeste 27 Sur 0 -- -- 86
2020-04-06 02:00:00 9.5 16 Sur 28 Sudoeste 0 -- -- 83
2020-04-06 01:00:00 10 14 Sudoeste 28 Sur 0 -- -- 78
2020-04-06 00:00:00 10.3 11 Sur 23 Sudoeste 0 -- -- 74
2020-04-05 23:00:00 9.4 12 Sur 16 Sur 0 -- -- 74
2020-04-05 22:00:00 10.9 8 Sudoeste 19 Sudoeste 0 -- -- 68
2020-04-05 21:00:00 12.3 8 Sudoeste 24 Sudoeste 0 -- -- 61
2020-04-05 20:00:00 13.4 14 Sudoeste 31 Sudoeste 0 -- -- 57
2020-04-05 19:00:00 15 15 Sudoeste 33 Oeste 0 -- -- 50
2020-04-05 18:00:00 15.3 16 Sudoeste 35 Sudoeste 0 -- -- 49
2020-04-05 17:00:00 16.1 15 Sudoeste 33 Sur 0 -- -- 47
2020-04-05 16:00:00 15.9 16 Sudoeste 32 Sudoeste 0 -- -- 48
2020-04-05 15:00:00 15.3 16 Sudoeste 37 Sudoeste 0 -- -- 52
2020-04-05 14:00:00 14.3 15 Sudoeste 31 Sudoeste 0 -- -- 53
2020-04-05 13:00:00 13.4 17 Sudoeste 32 Oeste 0 -- -- 57
2020-04-05 12:00:00 12 13 Sudoeste 28 Sudoeste 0 -- -- 62
2020-04-05 11:00:00 9.8 13 Sur 25 Sudoeste 0 -- -- 69
2020-04-05 10:00:00 7.5 17 Sur 24 Sur 0 -- -- 73
2020-04-05 09:00:00 6.4 14 Sur 24 Sur 0 -- -- 77
2020-04-05 08:00:00 6 14 Sur 25 Sur 0 -- -- 79
2020-04-05 07:00:00 5.7 17 Sur 27 Sur 0 -- -- 81
2020-04-05 06:00:00 5.9 15 Sur 29 Sur 0 -- -- 79
2020-04-05 05:00:00 6.1 17 Sur 30 Sur 0 -- -- 78
2020-04-05 04:00:00 6 13 Sur 32 Sur 0 -- -- 81
2020-04-05 03:00:00 5.9 16 Sur 28 Sur 0 -- -- 82
2020-04-05 02:00:00 6.4 15 Sur 29 Sur 0 -- -- 81
2020-04-05 01:00:00 7 10 Sur 30 Sur 0 -- -- 79
2020-04-05 00:00:00 7.4 13 Sur 30 Sur 0 -- -- 76
2020-04-04 23:00:00 8 8 Sur 17 Sur 0 -- -- 70
2020-04-04 22:00:00 9 4 Sur 16 Sur 0 -- -- 63
2020-04-04 21:00:00 10.2 10 Sudoeste 26 Sur 0 -- -- 60
2020-04-04 20:00:00 11.8 17 Sudoeste 32 Sudoeste 0 -- -- 53
2020-04-04 19:00:00 13.7 14 Sudoeste 35 Sudoeste 0 -- -- 48
2020-04-04 18:00:00 16.1 18 Sudoeste 32 Sudoeste 0 -- -- 42
2020-04-04 17:00:00 17.1 15 Sudoeste 28 Oeste 0 -- -- 41
2020-04-04 16:00:00 16.9 5 Sudeste 27 Sur 0 -- -- 36
2020-04-04 15:00:00 16 14 Sudoeste 28 Sudoeste 0 -- -- 40
2020-04-04 14:00:00 15.3 8 Sur 23 Sudoeste 0 -- -- 44
2020-04-04 13:00:00 13.6 11 Sudoeste 25 Sudoeste 0 -- -- 49
2020-04-04 12:00:00 12.3 9 Sudoeste 21 Sudoeste 0 -- -- 48
2020-04-04 11:00:00 7.6 4 Nordeste 8 Nordeste 0 -- -- 73
2020-04-04 10:00:00 3.3 4 Nordeste 5 Nordeste 0 -- -- 86
2020-04-04 09:00:00 0 0 Calma 10 Sur 0 -- -- 91
2020-04-04 08:00:00 -0.4 3 Nordeste 8 Este 0 -- -- 86
2020-04-04 07:00:00 -0.2 2 Sur 4 Este 0 -- -- 86
2020-04-04 06:00:00 0.5 3 Este 13 Sur 0 -- -- 82
2020-04-04 05:00:00 1.5 6 Sur 11 Sur 0 -- -- 81
2020-04-04 04:00:00 1.1 3 Nordeste 8 Sudeste 0 -- -- 79
2020-04-04 03:00:00 2.6 2 Nordeste 9 Sur 0 -- -- 72
2020-04-04 02:00:00 2.8 0 Calma 6 Sudeste 0 -- -- 71
2020-04-04 01:00:00 3.8 3 Nordeste 6 Nordeste 0 -- -- 64
2020-04-04 00:00:00 5.4 3 Este 7 Este 0 -- -- 56
2020-04-03 23:00:00 6.4 4 Este 9 Este 0 -- -- 50
2020-04-03 22:00:00 7.6 7 Sudeste 10 Este 0 -- -- 47
2020-04-03 21:00:00 9.4 5 Este 10 Este 0 -- -- 43
2020-04-03 20:00:00 11.6 0 Calma 9 Noroeste 0 -- -- 36
2020-04-03 19:00:00 12.1 4 Nordeste 12 Oeste 0 -- -- 36
2020-04-03 18:00:00 13.7 4 Oeste 15 Sudoeste 0 -- -- 33
2020-04-03 17:00:00 13.3 5 Noroeste 14 Oeste 0 -- -- 34
2020-04-03 16:00:00 13.1 6 Oeste 17 Oeste 0 -- -- 34
2020-04-03 15:00:00 11.8 3 Sur 16 Nordeste 0 -- -- 39
2020-04-03 14:00:00 10.2 4 Norte 15 Norte 0 -- -- 43
2020-04-03 13:00:00 9.1 6 Nordeste 17 Norte 0 -- -- 49
2020-04-03 12:00:00 7.4 4 Nordeste 12 Este 0 -- -- 58
2020-04-03 11:00:00 4.5 3 Este 12 Este 0 -- -- 64
2020-04-03 10:00:00 2.4 5 Este 10 Este 0 -- -- 69
2020-04-03 09:00:00 -0.5 3 Nordeste 8 Este 0 -- -- 89
2020-04-03 08:00:00 -1 2 Nordeste 5 Nordeste 0 -- -- 87
2020-04-03 07:00:00 -0.7 3 Este 6 Este 0 -- -- 86
2020-04-03 06:00:00 -0.4 3 Nordeste 10 Norte 0 -- -- 87
2020-04-03 05:00:00 0.3 4 Nordeste 9 Norte 0 -- -- 83
2020-04-03 04:00:00 1.2 2 Nordeste 8 Este 0 -- -- 84
2020-04-03 03:00:00 2.1 0 Calma 12 Norte 0 -- -- 83
2020-04-03 02:00:00 3 5 Norte 19 Norte 0 -- -- 76
2020-04-03 01:00:00 4.2 9 Nordeste 17 Nordeste 0 -- -- 84
2020-04-03 00:00:00 4.9 7 Nordeste 20 Norte 0 -- -- 84
2020-04-02 23:00:00 5.2 9 Nordeste 19 Nordeste 0 -- -- 84
2020-04-02 22:00:00 5.5 8 Nordeste 16 Norte 0 -- -- 85
2020-04-02 21:00:00 5.8 4 Nordeste 18 Nordeste 0.2 -- -- 90
2020-04-02 20:00:00 6 3 Nordeste 13 Nordeste 0 -- -- 88
2020-04-02 19:00:00 6.3 6 Nordeste 25 Nordeste 0 -- -- 86
2020-04-02 18:00:00 7 18 Nordeste 26 Nordeste 0 -- -- 80
2020-04-02 17:00:00 7.6 10 Nordeste 22 Nordeste 0 -- -- 79
2020-04-02 16:00:00 9.1 8 Este 19 Nordeste 0.2 -- -- 81
2020-04-02 15:00:00 7 5 Nordeste 24 Nordeste 1 -- -- 91
2020-04-02 14:00:00 7.7 7 Nordeste 21 Nordeste 0.2 -- -- 84
2020-04-02 13:00:00 7.5 6 Nordeste 17 Nordeste 0 -- -- 88
2020-04-02 12:00:00 5.6 6 Nordeste 14 Este 0 -- -- 90
2020-04-02 11:00:00 5.1 3 Nordeste 8 Nordeste 0 -- -- 99
2020-04-02 10:00:00 4 2 Nordeste 5 Nordeste 0 -- -- 100
2020-04-02 09:00:00 3 0 Calma 6 Este 0.2 -- -- 99
2020-04-02 08:00:00 2.7 2 Nordeste 8 Norte 0 -- -- 99
2020-04-02 07:00:00 2.4 4 Este 9 Este 0 -- -- 99
2020-04-02 06:00:00 2 4 Este 8 Este 0 -- -- 99
2020-04-02 05:00:00 1.8 3 Este 5 Nordeste 0 -- -- 97
2020-04-02 04:00:00 2.4 2 Nordeste 4 Nordeste 0 -- -- 96
2020-04-02 03:00:00 3.2 2 Sudeste 6 Este 0 -- -- 93
2020-04-02 02:00:00 4.1 0 Calma 6 Sur 0 -- -- 93
2020-04-02 01:00:00 4.5 4 Sur 8 Nordeste 0 -- -- 94
2020-04-02 00:00:00 4.5 0 Calma 5 Este 0 -- -- 92
2020-04-01 23:00:00 4.8 3 Sur 7 Este 0 -- -- 92
2020-04-01 22:00:00 5.1 3 Este 8 Nordeste 0 -- -- 94
2020-04-01 21:00:00 5.4 3 Nordeste 8 Nordeste 0 -- -- 93
2020-04-01 20:00:00 5.9 4 Sudoeste 18 Sudoeste 0.2 -- -- 91
2020-04-01 19:00:00 6.3 11 Sudoeste 23 Sudoeste 0 -- -- 86
2020-04-01 18:00:00 7 10 Sudoeste 30 Sudoeste 0.4 -- -- 89
2020-04-01 17:00:00 8.9 10 Sudoeste 22 Oeste 0 -- -- 74
2020-04-01 16:00:00 9.5 9 Oeste 33 Sudoeste 1.8 -- -- 80
2020-04-01 15:00:00 8.9 4 Oeste 15 Sur 0 -- -- 78
2020-04-01 14:00:00 9.4 3 Sudoeste 15 Oeste 0.4 -- -- 80
2020-04-01 13:00:00 7.8 7 Nordeste 14 Nordeste 0 -- -- 82
2020-04-01 12:00:00 6.8 6 Nordeste 12 Nordeste 0.2 -- -- 91
2020-04-01 11:00:00 5 3 Este 11 Sudeste 0.4 -- -- 96
2020-04-01 10:00:00 4 2 Este 3 Nordeste 0 -- -- 98
2020-04-01 09:00:00 3.7 2 Nordeste 9 Este 0.6 -- -- 98
2020-04-01 08:00:00 3.6 0 Calma 5 Nordeste 0.6 -- -- 98
2020-04-01 07:00:00 3.7 0 Calma 6 Nordeste 0.8 -- -- 98
2020-04-01 06:00:00 3.6 0 Calma 4 Este 1 -- -- 97
2020-04-01 05:00:00 3.7 3 Nordeste 12 Nordeste 1.4 -- -- 97
2020-04-01 04:00:00 3.9 2 Nordeste 3 Norte 2 -- -- 96
2020-04-01 03:00:00 4.2 0 Calma 8 Sudoeste 1.2 -- -- 95
2020-04-01 02:00:00 4.1 7 Sudoeste 12 Sudoeste 0 -- -- 97
2020-04-01 01:00:00 4 4 Nordeste 10 Nordeste 0 -- -- 96
2020-04-01 00:00:00 4.1 5 Nordeste 9 Nordeste 0 -- -- 96
2020-03-31 23:00:00 4.5 3 Nordeste 10 Sudeste 1.2 -- -- 94
2020-03-31 22:00:00 5 4 Sudeste 12 Sudeste 0.4 -- -- 90
2020-03-31 21:00:00 5.3 5 Este 13 Este 0 -- -- 88
2020-03-31 20:00:00 5.9 4 Nordeste 12 Este 0.2 -- -- 89
2020-03-31 19:00:00 6.9 4 Este 18 Sur 0.2 -- -- 84
2020-03-31 18:00:00 7.8 6 Sudeste 18 Sudeste 2.2 -- -- 79
2020-03-31 17:00:00 7.1 10 Sudeste 22 Sudeste 5.4 -- -- 81
2020-03-31 16:00:00 8.2 10 Sudeste 25 Sur 9.4 -- -- 78
2020-03-31 15:00:00 5.9 10 Sudeste 27 Sudeste 4.6 -- -- 89
2020-03-31 14:00:00 2.2 3 Nordeste 10 Nordeste 0.8 -- -- 99
2020-03-31 13:00:00 0.9 5 Nordeste 11 Nordeste 0 -- -- 99
2020-03-31 12:00:00 -0.1 4 Nordeste 13 Nordeste 0 -- -- 99
2020-03-31 11:00:00 -1.1 5 Nordeste 11 Nordeste 0 -- -- 99
2020-03-31 10:00:00 -1.8 3 Nordeste 13 Nordeste 0 -- -- 98
2020-03-31 09:00:00 -2.5 4 Nordeste 13 Nordeste 0 -- -- 98
2020-03-31 08:00:00 -2.9 4 Nordeste 18 Nordeste 0 -- -- 97
2020-03-31 07:00:00 -3.2 5 Nordeste 24 Este 0 -- -- 97
2020-03-31 06:00:00 -3.4 12 Nordeste 25 Este 0 -- -- 96
2020-03-31 05:00:00 -3.5 11 Nordeste 30 Nordeste 0 -- -- 96
2020-03-31 04:00:00 -3.4 14 Este 26 Este 0 -- -- 96
2020-03-31 03:00:00 -3.2 7 Nordeste 27 Este 0 -- -- 96
2020-03-31 02:00:00 -3 13 Este 33 Nordeste 0 -- -- 96
2020-03-31 01:00:00 -2.8 14 Nordeste 38 Este 0 -- -- 96
2020-03-31 00:00:00 -2.4 15 Nordeste 32 Nordeste 0 -- -- 95
2020-03-30 23:00:00 -2.3 12 Nordeste 32 Este 0 -- -- 95
2020-03-30 22:00:00 -2.3 13 Nordeste 26 Nordeste 0 -- -- 96
2020-03-30 21:00:00 -2 7 Nordeste 22 Nordeste 0 -- -- 97
2020-03-30 20:00:00 -1.8 7 Nordeste 20 Este 0 -- -- 97
2020-03-30 19:00:00 -2.1 7 Nordeste 23 Nordeste 0 -- -- 96
2020-03-30 18:00:00 -1.6 5 Nordeste 20 Este 0 -- -- 96
2020-03-30 17:00:00 -1.8 6 Nordeste 23 Nordeste 0 -- -- 96
2020-03-30 16:00:00 -1.6 8 Nordeste 26 Nordeste 0 -- -- 93
2020-03-30 15:00:00 0.9 13 Nordeste 27 Este 0 -- -- 71
2020-03-30 14:00:00 2 10 Nordeste 27 Nordeste 0 -- -- 68
2020-03-30 13:00:00 1.2 14 Nordeste 26 Nordeste 0 -- -- 73
2020-03-30 12:00:00 0.7 9 Nordeste 22 Nordeste 0 -- -- 77
2020-03-30 11:00:00 0.3 12 Nordeste 22 Nordeste 0 -- -- 75
2020-03-30 10:00:00 0.1 8 Nordeste 22 Nordeste 0 -- -- 84
2020-03-30 09:00:00 0.1 13 Nordeste 24 Nordeste 0 -- -- 86
2020-03-30 08:00:00 0.9 12 Nordeste 20 Nordeste 0 -- -- 86
2020-03-30 07:00:00 1.5 10 Nordeste 23 Nordeste 0 -- -- 85
2020-03-30 06:00:00 2 10 Nordeste 21 Nordeste 0 -- -- 85
2020-03-30 05:00:00 2.5 6 Nordeste 17 Este 0 -- -- 83
2020-03-30 04:00:00 3 7 Nordeste 21 Nordeste 0 -- -- 81
2020-03-30 03:00:00 3.7 4 Nordeste 14 Nordeste 0 -- -- 81
2020-03-30 02:00:00 4.2 4 Nordeste 12 Nordeste 0 -- -- 81
2020-03-30 01:00:00 4.4 3 Nordeste 10 Este 0 -- -- 76
2020-03-30 00:00:00 5.2 7 Este 12 Nordeste 0 -- -- 70
2020-03-29 23:00:00 6.5 3 Nordeste 21 Nordeste 0 -- -- 66
2020-03-29 22:00:00 7.8 13 Nordeste 21 Nordeste 0 -- -- 58
2020-03-29 21:00:00 9.6 13 Nordeste 27 Nordeste 0 -- -- 47
2020-03-29 20:00:00 12.2 10 Noroeste 20 Oeste 0 -- -- 43
2020-03-29 19:00:00 12.8 6 Oeste 19 Oeste 0 -- -- 39
2020-03-29 18:00:00 13.7 8 Norte 20 Noroeste 0 -- -- 35
2020-03-29 17:00:00 12.8 7 Norte 22 Norte 0 -- -- 39
2020-03-29 16:00:00 15.4 9 Oeste 26 Oeste 0 -- -- 39
2020-03-29 15:00:00 13.8 11 Oeste 24 Noroeste 0 -- -- 42
2020-03-29 14:00:00 13.6 6 Oeste 19 Sudoeste 0 -- -- 43
2020-03-29 13:00:00 11.7 7 Oeste 18 Oeste 0 -- -- 47
2020-03-29 12:00:00 11 5 Oeste 14 Oeste 0 -- -- 51
2020-03-29 11:00:00 8.1 0 Calma 8 Oeste 0 -- -- 66
2020-03-29 10:00:00 4.1 0 Calma 8 Sur 0 -- -- 85
2020-03-29 09:00:00 0.9 3 Sudoeste 8 Sur 0 -- -- 85
2020-03-29 08:00:00 0.3 3 Sur 5 Sur 0 -- -- 83
2020-03-29 07:00:00 0.5 0 Calma 8 Sur 0 -- -- 84
2020-03-29 06:00:00 0.9 2 Sur 7 Sur 0 -- -- 83
2020-03-29 05:00:00 0.7 3 Sudeste 9 Sur 0 -- -- 84
2020-03-29 03:00:00 2 2 Sudoeste 9 Sur 0 -- -- 77
2020-03-29 01:00:00 2.7 4 Sudeste 6 Sur 0 -- -- 75
2020-03-29 00:00:00 3.7 0 Calma 4 Sudeste 0 -- -- 72
2020-03-28 23:00:00 5.2 2 Sudeste 6 Este 0 -- -- 67
2020-03-28 22:00:00 6 5 Sudeste 7 Sudeste 0 -- -- 64
2020-03-28 21:00:00 6.6 0 Calma 8 Este 0 -- -- 60
2020-03-28 20:00:00 7.7 2 Sudeste 9 Este 0 -- -- 56
2020-03-28 19:00:00 9.2 4 Nordeste 15 Este 0 -- -- 51
2020-03-28 18:00:00 10.3 6 Nordeste 19 Nordeste 0 -- -- 49
2020-03-28 17:00:00 11.5 7 Nordeste 26 Nordeste 0 -- -- 45
2020-03-28 16:00:00 11.6 10 Nordeste 27 Norte 0 -- -- 45
2020-03-28 15:00:00 12 11 Nordeste 30 Nordeste 0 -- -- 46
2020-03-28 14:00:00 10.8 10 Nordeste 30 Este 0 -- -- 49
2020-03-28 13:00:00 9.6 10 Nordeste 24 Nordeste 0 -- -- 53
2020-03-28 12:00:00 9.4 13 Nordeste 28 Nordeste 0 -- -- 57
2020-03-28 11:00:00 7.7 9 Nordeste 18 Nordeste 0 -- -- 63
2020-03-28 10:00:00 4.4 6 Nordeste 9 Nordeste 0 -- -- 79
2020-03-28 09:00:00 1.7 3 Nordeste 6 Nordeste 0 -- -- 89
2020-03-28 08:00:00 -1.6 2 Nordeste 6 Este 0 -- -- 92
2020-03-28 07:00:00 -1.7 3 Sudeste 5 Sudeste 0 -- -- 93
2020-03-28 06:00:00 -2.4 2 Nordeste 4 Nordeste 0 -- -- 92
2020-03-28 05:00:00 -2.2 2 Nordeste 6 Nordeste 0 -- -- 90
2020-03-28 04:00:00 -2.1 3 Nordeste 6 Nordeste 0 -- -- 90
2020-03-28 03:00:00 -1.2 2 Nordeste 5 Este 0 -- -- 86
2020-03-28 02:00:00 -0.4 2 Nordeste 5 Nordeste 0 -- -- 85
2020-03-28 01:00:00 0.8 3 Nordeste 10 Este 0 -- -- 80
2020-03-28 00:00:00 1.4 4 Este 12 Este 0 -- -- 79
2020-03-27 23:00:00 1.7 6 Este 12 Este 0 -- -- 75
2020-03-27 22:00:00 2.6 2 Este 13 Este 0 -- -- 70
2020-03-27 21:00:00 3.2 6 Este 13 Este 0 -- -- 68
2020-03-27 20:00:00 4.2 6 Este 19 Este 0 -- -- 64
2020-03-27 19:00:00 5.9 9 Este 23 Este 0 -- -- 56
2020-03-27 18:00:00 6.7 11 Nordeste 28 Nordeste 0 -- -- 50
2020-03-27 17:00:00 8.3 10 Este 31 Nordeste 0 -- -- 45
2020-03-27 16:00:00 7.7 10 Nordeste 26 Nordeste 0 -- -- 49
2020-03-27 15:00:00 8.7 9 Nordeste 30 Nordeste 0 -- -- 49
2020-03-27 14:00:00 7.9 12 Nordeste 28 Nordeste 0 -- -- 56
2020-03-27 13:00:00 5.5 12 Nordeste 25 Este 0 -- -- 65
2020-03-27 12:00:00 3.1 12 Nordeste 27 Nordeste 0 -- -- 72
2020-03-27 11:00:00 3.2 12 Este 28 Este 0.4 -- -- 77
2020-03-27 10:00:00 0.7 8 Nordeste 23 Este 0.8 -- -- 84
2020-03-27 09:00:00 -1 9 Este 23 Este 0.2 -- -- 90
2020-03-27 08:00:00 -2.2 3 Nordeste 10 Este 0 -- -- 94
2020-03-27 07:00:00 -2.3 2 Nordeste 13 Este 0 -- -- 95
2020-03-27 06:00:00 -2.4 3 Nordeste 9 Nordeste 0 -- -- 94
2020-03-27 05:00:00 -2 4 Nordeste 24 Nordeste 0 -- -- 89
2020-03-27 04:00:00 -1 5 Este 20 Este 0 -- -- 70
2020-03-27 03:00:00 -1 10 Nordeste 29 Este 0 -- -- 69
2020-03-27 02:00:00 -0.8 9 Este 26 Este 0 -- -- 69
2020-03-27 01:00:00 -0.5 12 Este 29 Este 0 -- -- 68
2020-03-27 00:00:00 -0.2 12 Este 28 Este 0 -- -- 70
2020-03-26 23:00:00 0.5 5 Este 13 Nordeste 0 -- -- 68
2020-03-26 22:00:00 1.3 3 Nordeste 10 Este 0 -- -- 65
2020-03-26 21:00:00 2.4 3 Nordeste 13 Nordeste 0 -- -- 60
2020-03-26 20:00:00 3.7 8 Nordeste 24 Nordeste 0 -- -- 55
2020-03-26 19:00:00 5.3 11 Nordeste 32 Nordeste 0 -- -- 48
2020-03-26 18:00:00 6.3 10 Norte 25 Norte 0 -- -- 45
2020-03-26 17:00:00 7.1 16 Norte 29 Norte 0 -- -- 42
2020-03-26 16:00:00 7 15 Norte 36 Norte 0 -- -- 48
2020-03-26 15:00:00 7.3 18 Norte 40 Nordeste 0 -- -- 51
2020-03-26 14:00:00 6.7 20 Nordeste 38 Nordeste 0 -- -- 57
2020-03-26 13:00:00 5.5 17 Norte 33 Nordeste 0 -- -- 58
2020-03-26 12:00:00 4.9 16 Norte 36 Nordeste 0 -- -- 64
2020-03-26 11:00:00 4.2 17 Nordeste 36 Nordeste 0 -- -- 65
2020-03-26 10:00:00 3.2 9 Norte 22 Nordeste 0 -- -- 76
2020-03-26 09:00:00 1.8 6 Nordeste 19 Nordeste 0 -- -- 81
2020-03-26 08:00:00 0.1 8 Norte 14 Norte 0 -- -- 86
2020-03-26 07:00:00 -0.7 4 Nordeste 33 Nordeste 0 -- -- 90
2020-03-26 06:00:00 -0.9 5 Nordeste 13 Nordeste 0 -- -- 87
2020-03-26 05:00:00 -0.3 2 Nordeste 8 Nordeste 0 -- -- 94
2020-03-26 04:00:00 0.2 4 Nordeste 8 Nordeste 0 -- -- 91
2020-03-26 03:00:00 1.5 5 Oeste 7 Sudoeste 0 -- -- 91
2020-03-26 02:00:00 1.7 3 Sudoeste 10 Sudoeste 0 -- -- 88
2020-03-26 01:00:00 2.1 6 Sudoeste 13 Sur 0 -- -- 86
2020-03-26 00:00:00 2.2 4 Sur 8 Sur 0 -- -- 87
2020-03-25 23:00:00 2.8 2 Sudeste 10 Sudeste 0 -- -- 86
2020-03-25 22:00:00 3.2 6 Sur 12 Sur 0 -- -- 87
2020-03-25 21:00:00 4.3 5 Sur 12 Sudeste 0 -- -- 82
2020-03-25 20:00:00 4.9 4 Sudeste 10 Sudeste 0 -- -- 82
2020-03-25 19:00:00 6.1 4 Este 19 Este 0 -- -- 81
2020-03-25 18:00:00 6.7 6 Nordeste 35 Norte 0.4 -- -- 81
2020-03-25 17:00:00 9.6 6 Noroeste 29 Noroeste 0 -- -- 54
2020-03-25 16:00:00 10.1 11 Norte 22 Norte 0 -- -- 49
2020-03-25 15:00:00 9.5 7 Oeste 19 Oeste 0 -- -- 68
2020-03-25 14:00:00 9.4 9 Oeste 21 Oeste 0 -- -- 73
2020-03-25 13:00:00 8.6 9 Oeste 21 Sudoeste 0 -- -- 76
2020-03-25 12:00:00 6.1 9 Oeste 18 Oeste 0 -- -- 84
2020-03-25 11:00:00 4.9 8 Oeste 18 Oeste 0 -- -- 90
2020-03-25 10:00:00 4.1 8 Oeste 20 Oeste 0 -- -- 93
2020-03-25 09:00:00 3.5 10 Oeste 22 Oeste 0 -- -- 96
2020-03-25 08:00:00 3.2 9 Oeste 17 Oeste 0 -- -- 97
2020-03-25 07:00:00 3.1 7 Oeste 18 Oeste 0 -- -- 97
2020-03-25 06:00:00 3.2 10 Oeste 19 Oeste 0 -- -- 96
2020-03-25 05:00:00 3 6 Sudoeste 27 Sudoeste 0 -- -- 94
2020-03-25 04:00:00 2.4 8 Sudoeste 16 Sudoeste 0 -- -- 93
2020-03-25 03:00:00 1.5 11 Sur 17 Sur 0 -- -- 90
2020-03-25 02:00:00 1.5 5 Sudoeste 12 Sur 0 -- -- 93
2020-03-25 01:00:00 1.2 0 Calma 10 Sur 0 -- -- 91
2020-03-25 00:00:00 1.9 0 Calma 5 Sur 0 -- -- 88
2020-03-24 23:00:00 3 0 Calma 6 Sudeste 0 -- -- 90
2020-03-24 22:00:00 3.9 4 Este 11 Este 0 -- -- 88
2020-03-24 21:00:00 5.2 5 Este 10 Este 0 -- -- 83
2020-03-24 20:00:00 6.2 4 Nordeste 14 Este 0 -- -- 85
2020-03-24 19:00:00 6.8 6 Nordeste 20 Este 0 -- -- 81
2020-03-24 18:00:00 7.3 8 Nordeste 22 Nordeste 0 -- -- 79
2020-03-24 17:00:00 8.1 8 Nordeste 32 Nordeste 0 -- -- 77
2020-03-24 16:00:00 9.3 11 Nordeste 30 Este 0 -- -- 76
2020-03-24 15:00:00 9.1 14 Nordeste 31 Nordeste 0.2 -- -- 75
2020-03-24 14:00:00 8.2 12 Nordeste 32 Nordeste 0 -- -- 75
2020-03-24 13:00:00 7.3 15 Este 33 Nordeste 0 -- -- 79
2020-03-24 12:00:00 7 13 Nordeste 40 Este 0 -- -- 82
2020-03-24 11:00:00 6.1 14 Nordeste 39 Este 0 -- -- 86
2020-03-24 10:00:00 5.7 15 Nordeste 37 Nordeste 0 -- -- 92
2020-03-24 09:00:00 4.7 12 Nordeste 29 Nordeste 0 -- -- 97
2020-03-24 08:00:00 4.2 12 Nordeste 30 Este 0 -- -- 98
2020-03-24 07:00:00 4.2 14 Nordeste 28 Este 0 -- -- 96
2020-03-24 06:00:00 4.3 9 Nordeste 24 Este 0 -- -- 97
2020-03-24 05:00:00 4.3 9 Nordeste 27 Nordeste 0 -- -- 96
2020-03-24 04:00:00 4.8 12 Este 23 Este 0 -- -- 96
2020-03-24 03:00:00 4.9 9 Este 20 Este 0 -- -- 98
2020-03-24 02:00:00 4.8 6 Nordeste 15 Nordeste 0 -- -- 99
2020-03-24 01:00:00 4.7 5 Nordeste 11 Nordeste 0 -- -- 98
2020-03-24 00:00:00 4.5 5 Nordeste 16 Nordeste 0 -- -- 97
2020-03-23 23:00:00 4.6 6 Nordeste 11 Este 0 -- -- 97
2020-03-23 22:00:00 5 6 Este 12 Este 0 -- -- 96
2020-03-23 21:00:00 5.4 8 Nordeste 15 Este 0 -- -- 95
2020-03-23 20:00:00 5.8 4 Nordeste 10 Este 0 -- -- 94
2020-03-23 19:00:00 6.6 3 Nordeste 14 Nordeste 1.8 -- -- 92
2020-03-23 18:00:00 7.7 5 Este 15 Este 1 -- -- 86
2020-03-23 17:00:00 9.7 6 Noroeste 16 Nordeste 0 -- -- 80
2020-03-23 16:00:00 9.4 7 Este 27 Este 0 -- -- 83
2020-03-23 15:00:00 9.6 8 Este 20 Este 1.6 -- -- 89
2020-03-23 14:00:00 8 6 Este 20 Este 0.4 -- -- 86
2020-03-23 13:00:00 8.1 12 Nordeste 26 Nordeste 0 -- -- 86
2020-03-23 12:00:00 6.8 6 Nordeste 19 Este 0.2 -- -- 97
2020-03-23 11:00:00 5.6 6 Nordeste 26 Nordeste 0 -- -- 94
2020-03-23 10:00:00 5.1 6 Nordeste 21 Nordeste 0 -- -- 96
2020-03-23 09:00:00 4.8 4 Nordeste 14 Nordeste 0 -- -- 99
2020-03-23 08:00:00 4.1 6 Nordeste 18 Este 0 -- -- 98
2020-03-23 07:00:00 3.9 6 Nordeste 15 Este 0 -- -- 98
2020-03-23 06:00:00 3.1 4 Este 14 Este 0 -- -- 97
2020-03-23 05:00:00 3.2 4 Este 12 Este 0 -- -- 96
2020-03-23 04:00:00 3.6 5 Este 12 Este 0 -- -- 96
2020-03-23 03:00:00 3.5 6 Este 13 Sudeste 0 -- -- 96
2020-03-23 02:00:00 3.7 3 Este 7 Este 0 -- -- 94
2020-03-23 01:00:00 4.3 2 Nordeste 9 Este 0 -- -- 94
2020-03-23 00:00:00 5 0 Calma 9 Este 0 -- -- 93
2020-03-22 23:00:00 5.4 3 Este 12 Nordeste 0.2 -- -- 94
2020-03-22 22:00:00 5.6 5 Este 12 Este 0.2 -- -- 95
2020-03-22 21:00:00 5.7 5 Este 16 Este 1.8 -- -- 93
2020-03-22 20:00:00 6.5 6 Nordeste 18 Este 0 -- -- 87
2020-03-22 19:00:00 7 8 Nordeste 22 Nordeste 0 -- -- 83
2020-03-22 18:00:00 7.4 9 Nordeste 26 Este 0 -- -- 78
2020-03-22 17:00:00 8.4 9 Nordeste 30 Nordeste 0 -- -- 73
2020-03-22 16:00:00 8.4 9 Este 24 Este 0 -- -- 74
2020-03-22 15:00:00 8.7 8 Sudeste 22 Sudeste 0 -- -- 70
2020-03-22 14:00:00 7.9 7 Este 19 Nordeste 0 -- -- 78
2020-03-22 13:00:00 7.1 9 Este 21 Nordeste 0 -- -- 83
2020-03-22 12:00:00 6.9 6 Nordeste 14 Este 0 -- -- 92
2020-03-22 11:00:00 5.7 0 Calma 8 Este 0.4 -- -- 97
2020-03-22 10:00:00 4.7 3 Nordeste 6 Nordeste 0.2 -- -- 97
2020-03-22 09:00:00 4.2 0 Calma 4 Nordeste 0 -- -- 98
2020-03-22 08:00:00 3.6 0 Calma 4 Nordeste 0.2 -- -- 98
2020-03-22 07:00:00 3.4 2 Nordeste 5 Nordeste 0.4 -- -- 98
2020-03-22 06:00:00 3.2 2 Nordeste 6 Nordeste 0.4 -- -- 99
2020-03-22 05:00:00 3.2 2 Este 6 Nordeste 0 -- -- 99
2020-03-22 04:00:00 3.2 2 Nordeste 5 Nordeste 0 -- -- 98
2020-03-22 03:00:00 3.2 3 Nordeste 8 Nordeste 0.2 -- -- 98
2020-03-22 02:00:00 3.4 0 Calma 10 Sur 1.2 -- -- 96
2020-03-22 01:00:00 3.5 4 Sur 12 Sudoeste 1.4 -- -- 95
2020-03-22 00:00:00 3.8 4 Sudoeste 12 Sudoeste 0.2 -- -- 94
2020-03-21 23:00:00 4 6 Sudoeste 15 Sur 0.8 -- -- 94
2020-03-21 22:00:00 4.5 9 Sudoeste 18 Sudoeste 2 -- -- 94
2020-03-21 21:00:00 5.3 8 Sudoeste 14 Sudoeste 0 -- -- 94
2020-03-21 20:00:00 5.7 5 Sudoeste 15 Oeste 0 -- -- 93
2020-03-21 19:00:00 6.1 9 Sudoeste 17 Sudoeste 0 -- -- 92
2020-03-21 18:00:00 7.4 8 Sudoeste 18 Sudoeste 0 -- -- 87
2020-03-21 17:00:00 7.5 9 Sudoeste 18 Sudoeste 0 -- -- 86
2020-03-21 16:00:00 7.8 7 Sudoeste 16 Sudoeste 0 -- -- 82
2020-03-21 15:00:00 8.3 7 Sudoeste 19 Sudoeste 0 -- -- 79
2020-03-21 14:00:00 7.8 9 Sudoeste 21 Sudoeste 0 -- -- 82
2020-03-21 13:00:00 7.4 9 Sudoeste 21 Sudoeste 0 -- -- 81
2020-03-21 12:00:00 6.9 8 Sudoeste 19 Sur 0 -- -- 82
2020-03-21 11:00:00 6.6 5 Sur 15 Sur 0 -- -- 83
2020-03-21 10:00:00 5.2 0 Calma 9 Nordeste 0 -- -- 90
2020-03-21 09:00:00 3.8 2 Nordeste 6 Este 0 -- -- 93
2020-03-21 08:00:00 3.2 3 Este 7 Este 0 -- -- 90
2020-03-21 07:00:00 3.4 3 Sudeste 6 Sudeste 0 -- -- 87
2020-03-21 06:00:00 4.1 0 Calma 4 Este 0 -- -- 86
2020-03-21 05:00:00 5.2 0 Calma 12 Sudoeste 0 -- -- 84
2020-03-21 04:00:00 5.8 4 Sudoeste 10 Sur 0 -- -- 87
2020-03-21 03:00:00 5.7 0 Calma 17 Sur 0 -- -- 86
2020-03-21 02:00:00 5.7 9 Sur 20 Sur 0 -- -- 89
2020-03-21 01:00:00 5.8 2 Sudeste 5 Sudeste 0 -- -- 89
2020-03-21 00:00:00 6.2 3 Sur 5 Sur 0 -- -- 88
2020-03-20 23:00:00 6.3 3 Sur 6 Sudoeste 0 -- -- 87
2020-03-20 22:00:00 6.3 3 Sudoeste 9 Sudoeste 0 -- -- 86
2020-03-20 21:00:00 7 6 Sudoeste 12 Sudoeste 0 -- -- 84
2020-03-20 20:00:00 8.1 6 Sudoeste 12 Oeste 0 -- -- 81
2020-03-20 19:00:00 9.4 5 Sudoeste 20 Oeste 0 -- -- 76
2020-03-20 18:00:00 11.4 11 Sudoeste 21 Oeste 0 -- -- 68
2020-03-20 17:00:00 12.4 7 Sudoeste 18 Sudoeste 0 -- -- 63
2020-03-20 16:00:00 13.5 9 Sudoeste 17 Oeste 0 -- -- 60
2020-03-20 15:00:00 11.6 5 Oeste 19 Sudoeste 0 -- -- 67
2020-03-20 14:00:00 9.8 9 Sur 19 Sudoeste 0 -- -- 72
2020-03-20 13:00:00 10.1 9 Sur 18 Sudoeste 0 -- -- 71
2020-03-20 12:00:00 8.8 3 Nordeste 8 Nordeste 0 -- -- 75
2020-03-20 11:00:00 8.1 2 Este 10 Sur 0 -- -- 78
2020-03-20 10:00:00 7.1 6 Sur 14 Sudeste 0 -- -- 82
2020-03-20 09:00:00 4.7 2 Nordeste 9 Sur 0 -- -- 95
2020-03-20 08:00:00 3.9 3 Sudoeste 8 Sur 0 -- -- 94
2020-03-20 07:00:00 3.8 0 Calma 4 Este 0 -- -- 92
2020-03-20 06:00:00 4.3 0 Calma 7 Oeste 0 -- -- 92
2020-03-20 05:00:00 4.4 4 Sudoeste 10 Sudoeste 0 -- -- 92
2020-03-20 04:00:00 4.3 3 Sudoeste 6 Sudoeste 0 -- -- 93
2020-03-20 03:00:00 3.9 2 Oeste 4 Oeste 0 -- -- 93
2020-03-20 02:00:00 4.1 0 Calma 10 Sudoeste 0 -- -- 89
2020-03-20 01:00:00 4.2 4 Sudoeste 10 Sudoeste 0 -- -- 90
2020-03-20 00:00:00 5.5 5 Sudoeste 12 Sur 0 -- -- 85
2020-03-19 23:00:00 6.5 3 Sur 10 Sur 0 -- -- 84
2020-03-19 22:00:00 7.6 5 Sudoeste 14 Sudoeste 0 -- -- 81
2020-03-19 21:00:00 8.5 7 Sudoeste 18 Sudoeste 0 -- -- 79
2020-03-19 20:00:00 10.1 8 Sudoeste 22 Sudoeste 0 -- -- 73
2020-03-19 19:00:00 12.1 8 Sudoeste 17 Sudoeste 0 -- -- 66
2020-03-19 18:00:00 14.1 4 Este 17 Este 0 -- -- 52
2020-03-19 17:00:00 15.4 4 Nordeste 13 Nordeste 0 -- -- 39
2020-03-19 16:00:00 15.3 4 Norte 15 Nordeste 0 -- -- 38
2020-03-19 15:00:00 14.7 4 Noroeste 14 Noroeste 0 -- -- 48
2020-03-19 14:00:00 13.5 4 Norte 14 Noroeste 0 -- -- 58
2020-03-19 13:00:00 12.7 4 Este 11 Oeste 0 -- -- 67
2020-03-19 12:00:00 10.8 5 Oeste 11 Oeste 0 -- -- 74
2020-03-19 11:00:00 8.5 4 Nordeste 9 Nordeste 0 -- -- 85
2020-03-19 10:00:00 5.6 3 Nordeste 8 Sudoeste 0 -- -- 95
2020-03-19 09:00:00 3.4 0 Calma 4 Sur 0 -- -- 100
2020-03-19 08:00:00 1.8 3 Nordeste 5 Nordeste 0 -- -- 98
2020-03-19 07:00:00 2 3 Nordeste 10 Nordeste 0 -- -- 98
2020-03-19 06:00:00 2.4 4 Nordeste 6 Nordeste 0 -- -- 97
2020-03-19 05:00:00 3.2 3 Nordeste 6 Nordeste 0 -- -- 95
2020-03-19 04:00:00 4.3 3 Nordeste 6 Sudeste 0 -- -- 93
2020-03-19 03:00:00 5 4 Este 8 Sudeste 0 -- -- 91
2020-03-19 02:00:00 5.3 2 Este 10 Este 0 -- -- 93
2020-03-19 01:00:00 6.4 5 Nordeste 13 Este 0 -- -- 91
2020-03-19 00:00:00 7.3 8 Este 13 Este 0 -- -- 88
2020-03-18 23:00:00 7.9 6 Nordeste 12 Nordeste 0 -- -- 89
2020-03-18 22:00:00 8.6 3 Nordeste 15 Nordeste 0 -- -- 86
2020-03-18 21:00:00 9.3 9 Este 17 Nordeste 0 -- -- 82
2020-03-18 20:00:00 9.8 7 Este 14 Sudeste 0 -- -- 75
2020-03-18 19:00:00 11 5 Este 15 Este 0 -- -- 72
2020-03-18 18:00:00 11.8 4 Nordeste 20 Este 0 -- -- 73
2020-03-18 17:00:00 12.2 6 Nordeste 22 Nordeste 0 -- -- 72
2020-03-18 16:00:00 13.1 10 Nordeste 25 Nordeste 0 -- -- 69
2020-03-18 15:00:00 14.1 8 Nordeste 20 Nordeste 0 -- -- 67
2020-03-18 14:00:00 13.6 10 Nordeste 18 Nordeste 0 -- -- 68
2020-03-18 13:00:00 12.3 8 Nordeste 17 Nordeste 0 -- -- 74
2020-03-18 12:00:00 10.5 7 Nordeste 16 Nordeste 0 -- -- 77
2020-03-18 11:00:00 8.9 12 Nordeste 18 Nordeste 0 -- -- 79
2020-03-18 10:00:00 6.9 5 Nordeste 14 Nordeste 0.2 -- -- 87
2020-03-18 09:00:00 5.5 2 Nordeste 7 Nordeste 0 -- -- 90
2020-03-18 08:00:00 4.6 2 Nordeste 17 Este 0 -- -- 92
2020-03-18 07:00:00 4.7 12 Nordeste 21 Este 0 -- -- 92
2020-03-18 06:00:00 4.9 9 Nordeste 20 Este 0 -- -- 93
2020-03-18 05:00:00 4.9 12 Nordeste 25 Nordeste 0 -- -- 94
2020-03-18 04:00:00 5.1 12 Nordeste 23 Este 0 -- -- 96
2020-03-18 03:00:00 5.3 12 Nordeste 25 Nordeste 0 -- -- 97
2020-03-18 02:00:00 5.7 9 Nordeste 24 Este 0 -- -- 97
2020-03-18 01:00:00 5.9 7 Nordeste 19 Nordeste 0 -- -- 98
2020-03-18 00:00:00 6.2 9 Nordeste 21 Nordeste 0 -- -- 98
2020-03-17 23:00:00 6.4 7 Nordeste 17 Nordeste 0 -- -- 97
2020-03-17 22:00:00 6.5 7 Nordeste 21 Este 0 -- -- 96
2020-03-17 21:00:00 6.6 6 Nordeste 22 Nordeste 0 -- -- 95
2020-03-17 20:00:00 7.2 11 Nordeste 27 Este 0 -- -- 93
2020-03-17 19:00:00 8 12 Nordeste 28 Nordeste 0 -- -- 94
2020-03-17 18:00:00 8.4 12 Este 27 Nordeste 0 -- -- 95
2020-03-17 17:00:00 8.7 8 Nordeste 27 Nordeste 0 -- -- 94
2020-03-17 16:00:00 8.7 9 Nordeste 21 Este 0 -- -- 93
2020-03-17 15:00:00 8.6 7 Este 30 Nordeste 0.4 -- -- 88
2020-03-17 14:00:00 9.4 12 Este 28 Nordeste 0 -- -- 99
2020-03-17 13:00:00 7.4 6 Nordeste 15 Nordeste 0 -- -- 100
2020-03-17 12:00:00 6.1 4 Nordeste 12 Nordeste 0.2 -- -- 100
2020-03-17 11:00:00 4.6 4 Nordeste 8 Nordeste 1.4 -- -- 100
2020-03-17 10:00:00 3.9 3 Nordeste 8 Nordeste 1.4 -- -- 100
2020-03-17 09:00:00 3.7 3 Nordeste 11 Sudeste 1.4 -- -- 100
2020-03-17 08:00:00 3.5 2 Sudeste 6 Sudeste 2.4 -- -- 100
2020-03-17 07:00:00 3.6 4 Este 13 Nordeste 1.6 -- -- 100
2020-03-17 06:00:00 3.4 9 Este 19 Nordeste 3 -- -- 100
2020-03-17 05:00:00 3 4 Nordeste 17 Este 4.8 -- -- 100
2020-03-17 04:00:00 3.3 10 Este 23 Sudeste 1.6 -- -- 100
2020-03-17 03:00:00 3 12 Este 33 Este 2.6 -- -- 100
2020-03-17 02:00:00 2.5 14 Este 31 Nordeste 1.6 -- -- 100
2020-03-17 01:00:00 2 12 Nordeste 26 Nordeste 1.6 -- -- 100
2020-03-17 00:00:00 1.5 12 Este 24 Sudeste 1.2 -- -- 100
2020-03-16 23:00:00 1 9 Este 23 Este 0.6 -- -- 99
2020-03-16 22:00:00 0.7 7 Nordeste 15 Este 0.4 -- -- 99
2020-03-16 21:00:00 0.6 3 Nordeste 22 Nordeste 0.2 -- -- 99
2020-03-16 20:00:00 0.5 5 Nordeste 21 Nordeste 0.2 -- -- 98
2020-03-16 19:00:00 0.2 0 Calma 13 Nordeste 0.2 -- -- 98
2020-03-16 18:00:00 0.2 0 Calma 5 Norte 1 -- -- 97
2020-03-16 17:00:00 0.7 0 Calma -- -- 0.6 -- -- 97
2020-03-16 16:00:00 0.8 2 Este 8 Sudeste 0.8 -- -- 96
2020-03-16 15:00:00 0.7 0 Calma 6 Nordeste 1 -- -- 97
2020-03-16 14:00:00 0.1 0 Calma -- -- 0.6 -- -- 98
2020-03-16 13:00:00 0.5 0 Calma -- -- 0.8 -- -- 97
2020-03-16 12:00:00 0.7 0 Calma -- -- 0.2 -- -- 98
2020-03-16 11:00:00 0.2 0 Calma -- -- 0 -- -- 97
2020-03-16 10:00:00 0.5 0 Calma 8 Sudoeste 0 -- -- 95
2020-03-16 09:00:00 1.6 5 Sudoeste 11 Oeste 2 -- -- 94
2020-03-16 08:00:00 2.7 0 Calma 8 Norte 0.6 -- -- 95
2020-03-16 07:00:00 3 3 Noroeste 16 Sudoeste 2.2 -- -- 94
2020-03-16 06:00:00 3.7 5 Oeste 33 Oeste 4.4 -- -- 94
2020-03-16 05:00:00 6.1 8 Sudoeste 21 Sur 0.8 -- -- 94
2020-03-16 04:00:00 6 4 Sudeste 27 Sudoeste 1.6 -- -- 92
2020-03-16 03:00:00 6.2 17 Sudoeste 38 Sur 1 -- -- 93
2020-03-16 02:00:00 6.5 15 Sur 27 Sur 1 -- -- 93
2020-03-16 01:00:00 6.4 9 Sur 24 Sudoeste 1.4 -- -- 92
2020-03-16 00:00:00 6.5 8 Sudoeste 16 Sudoeste 1.6 -- -- 92
2020-03-15 23:00:00 6 3 Sudoeste 30 Oeste 4.8 -- -- 91
2020-03-15 22:00:00 6.3 18 Sudoeste 51 Oeste 1.4 -- -- 84
2020-03-15 21:00:00 8.5 15 Sur 30 Sur 0 -- -- 72
2020-03-15 20:00:00 8.9 17 Sur 36 Sur 0 -- -- 70
2020-03-15 19:00:00 10 20 Sur 37 Sur 0 -- -- 70
2020-03-15 18:00:00 11 17 Sur 31 Sur 0 -- -- 62
2020-03-15 17:00:00 12.3 14 Sudoeste 43 Sudoeste 0 -- -- 67
2020-03-15 16:00:00 13.9 21 Sudoeste 39 Sudoeste 0 -- -- 65
2020-03-15 15:00:00 14.2 13 Sudoeste 37 Sudoeste 0.6 -- -- 70
2020-03-15 14:00:00 16 19 Sudoeste 45 Sudoeste 0 -- -- 56
2020-03-15 13:00:00 15.6 21 Sudoeste 38 Sudoeste 0 -- -- 60
2020-03-15 12:00:00 14 20 Sudoeste 39 Sudoeste 0 -- -- 67
2020-03-15 11:00:00 13.7 20 Sur 32 Sur 0 -- -- 63
2020-03-15 10:00:00 12.5 17 Sur 31 Sur 0 -- -- 71
2020-03-15 09:00:00 10.6 17 Sur 27 Sur 0 -- -- 79
2020-03-15 08:00:00 8.4 14 Sur 25 Sur 0 -- -- 87
2020-03-15 07:00:00 8 17 Sur 25 Sur 0 -- -- 87
2020-03-15 06:00:00 8.2 17 Sur 26 Sur 0 -- -- 87
2020-03-15 05:00:00 8.6 16 Sur 25 Sur 0 -- -- 86
2020-03-15 04:00:00 9 16 Sur 26 Sur 0 -- -- 84
2020-03-15 03:00:00 8.9 15 Sur 22 Sur 0 -- -- 83
2020-03-15 02:00:00 7.1 5 Sur 12 Sudeste 0 -- -- 81
2020-03-15 01:00:00 6.8 4 Nordeste 7 Nordeste 0 -- -- 55
2020-03-15 00:00:00 8.3 2 Este 8 Este 0 -- -- 47
2020-03-14 23:00:00 9.4 4 Este 13 Este 0 -- -- 42
2020-03-14 22:00:00 9.5 5 Este 13 Este 0 -- -- 43
2020-03-14 21:00:00 10.7 5 Este 14 Nordeste 0 -- -- 42
2020-03-14 20:00:00 12 6 Este 16 Este 0 -- -- 40
2020-03-14 19:00:00 14.1 5 Nordeste 21 Nordeste 0 -- -- 36
2020-03-14 18:00:00 16.7 5 Norte 17 Noroeste 0 -- -- 37
2020-03-14 17:00:00 18 6 Noroeste 17 Oeste 0 -- -- 37
2020-03-14 16:00:00 18.4 6 Noroeste 20 Noroeste 0 -- -- 38
2020-03-14 15:00:00 18.2 6 Noroeste 18 Oeste 0 -- -- 34
2020-03-14 14:00:00 17.3 5 Oeste 23 Noroeste 0 -- -- 44
2020-03-14 13:00:00 16.3 4 Sur 14 Este 0 -- -- 53
2020-03-14 12:00:00 13.8 6 Nordeste 16 Nordeste 0 -- -- 63
2020-03-14 11:00:00 11.4 8 Nordeste 15 Nordeste 0 -- -- 73
2020-03-14 10:00:00 8.3 3 Nordeste 9 Nordeste 0 -- -- 86
2020-03-14 09:00:00 5 5 Nordeste 10 Nordeste 0 -- -- 94
2020-03-14 08:00:00 4.1 2 Nordeste 5 Este 0 -- -- 94
2020-03-14 07:00:00 4.1 3 Este 10 Nordeste 0 -- -- 92
2020-03-14 06:00:00 4.5 0 Calma 7 Sudeste 0 -- -- 91
2020-03-14 05:00:00 4.5 2 Este 8 Sudeste 0 -- -- 91
2020-03-14 04:00:00 5 3 Nordeste 6 Este 0 -- -- 89
2020-03-14 03:00:00 5.3 3 Nordeste 6 Este 0 -- -- 89
2020-03-14 02:00:00 6 2 Nordeste 8 Sudeste 0 -- -- 86
2020-03-14 01:00:00 6.1 5 Sudeste 10 Sudeste 0 -- -- 87
2020-03-14 00:00:00 6.5 5 Nordeste 10 Nordeste 0 -- -- 85
2020-03-13 23:00:00 7.2 4 Nordeste 11 Nordeste 0 -- -- 82
2020-03-13 22:00:00 8.5 5 Nordeste 13 Este 0 -- -- 78
2020-03-13 21:00:00 9.5 8 Nordeste 24 Este 0 -- -- 75
2020-03-13 20:00:00 11 10 Nordeste 21 Nordeste 0 -- -- 70
2020-03-13 19:00:00 13.3 6 Nordeste 20 Nordeste 0 -- -- 64
2020-03-13 18:00:00 16.6 10 Nordeste 22 Nordeste 0 -- -- 56
2020-03-13 17:00:00 19.5 14 Sudoeste 25 Sudoeste 0 -- -- 42
2020-03-13 16:00:00 20.3 13 Sudoeste 23 Sudoeste 0 -- -- 42
2020-03-13 15:00:00 19.8 11 Sudoeste 27 Oeste 0 -- -- 42
2020-03-13 14:00:00 19.3 12 Sudoeste 22 Sudoeste 0 -- -- 48
2020-03-13 13:00:00 17 5 Nordeste 14 Nordeste 0 -- -- 56
2020-03-13 12:00:00 14.7 8 Nordeste 17 Nordeste 0 -- -- 66
2020-03-13 11:00:00 12.2 10 Nordeste 17 Nordeste 0 -- -- 73
2020-03-13 10:00:00 9.3 9 Nordeste 15 Nordeste 0 -- -- 84
2020-03-13 09:00:00 7.5 4 Nordeste 13 Nordeste 0 -- -- 90
2020-03-13 08:00:00 6.9 4 Nordeste 10 Nordeste 0 -- -- 90
2020-03-13 07:00:00 6.9 5 Nordeste 12 Nordeste 0 -- -- 89
2020-03-13 06:00:00 7.3 6 Nordeste 12 Este 0 -- -- 86
2020-03-13 05:00:00 8.2 4 Nordeste 9 Nordeste 0 -- -- 77
2020-03-13 04:00:00 9.5 4 Nordeste 7 Nordeste 0 -- -- 70
2020-03-13 03:00:00 10.6 0 Calma 6 Sudoeste 0 -- -- 67
2020-03-13 02:00:00 11.5 5 Sur 10 Sur 0 -- -- 63
2020-03-13 01:00:00 11.5 3 Nordeste 9 Sur 0 -- -- 63
2020-03-13 00:00:00 11.9 3 Sudeste 8 Sur 0 -- -- 60
2020-03-12 23:00:00 12.4 5 Sur 8 Sudoeste 0 -- -- 59
2020-03-12 22:00:00 13.9 5 Sudoeste 9 Oeste 0 -- -- 56
2020-03-12 21:00:00 14.4 6 Sudoeste 10 Sur 0 -- -- 53
2020-03-12 20:00:00 16.3 6 Sur 13 Sudoeste 0 -- -- 50
2020-03-12 19:00:00 19 6 Sudoeste 23 Oeste 0 -- -- 42
2020-03-12 18:00:00 20.6 10 Oeste 27 Sudoeste 0 -- -- 38
2020-03-12 17:00:00 21.6 15 Sudoeste 30 Sudoeste 0 -- -- 38
2020-03-12 16:00:00 22.5 19 Sudoeste 37 Sudoeste 0 -- -- 34
2020-03-12 15:00:00 22.5 17 Sudoeste 41 Sur 0 -- -- 34
2020-03-12 14:00:00 22.5 16 Sudoeste 32 Sudoeste 0 -- -- 32
2020-03-12 13:00:00 20.9 16 Sur 26 Sur 0 -- -- 37
2020-03-12 12:00:00 20.2 13 Sudoeste 23 Sudoeste 0 -- -- 39
2020-03-12 11:00:00 19 9 Sudoeste 19 Sur 0 -- -- 43
2020-03-12 10:00:00 16.3 9 Sur 15 Sur 0 -- -- 50
2020-03-12 09:00:00 9.8 4 Este 6 Sur 0 -- -- 70
2020-03-12 08:00:00 10 3 Nordeste 15 Sur 0 -- -- 65
2020-03-12 07:00:00 10.5 8 Sur 16 Sur 0 -- -- 62
2020-03-12 06:00:00 10.3 5 Sur 21 Sur 0 -- -- 65
2020-03-12 05:00:00 10.2 13 Sur 21 Sur 0 -- -- 68
2020-03-12 04:00:00 9.7 8 Sur 19 Sur 0 -- -- 71
2020-03-12 03:00:00 9.8 14 Sur 22 Sur 0 -- -- 71
2020-03-12 02:00:00 9.9 12 Sur 19 Sur 0 -- -- 71
2020-03-12 01:00:00 10.5 10 Sur 17 Sur 0 -- -- 68
2020-03-12 00:00:00 11.1 13 Sur 18 Sur 0 -- -- 67
2020-03-11 23:00:00 11.8 13 Sur 20 Sur 0 -- -- 66
2020-03-11 22:00:00 12.3 14 Sur 17 Sur 0 -- -- 65
2020-03-11 21:00:00 13.5 14 Sur 18 Sur 0 -- -- 62
2020-03-11 20:00:00 15.7 13 Sur 18 Sudoeste 0 -- -- 56
2020-03-11 19:00:00 18.5 12 Sudoeste 18 Sudoeste 0 -- -- 46
2020-03-11 18:00:00 20.4 9 Sudoeste 16 Sudoeste 0 -- -- 40
2020-03-11 17:00:00 21.2 6 Oeste 23 Oeste 0 -- -- 38
2020-03-11 16:00:00 22.2 9 Oeste 28 Oeste 0 -- -- 35
2020-03-11 15:00:00 21.9 11 Oeste 24 Oeste 0 -- -- 37
2020-03-11 14:00:00 21.4 8 Oeste 22 Sudoeste 0 -- -- 39
2020-03-11 13:00:00 20.1 9 Oeste 18 Oeste 0 -- -- 41
2020-03-11 12:00:00 18.6 8 Oeste 16 Oeste 0 -- -- 48
2020-03-11 11:00:00 15.4 2 Nordeste 5 Nordeste 0 -- -- 61
2020-03-11 10:00:00 12.5 0 Calma 6 Sur 0 -- -- 69
2020-03-11 09:00:00 7.6 0 Calma 5 Sur 0 -- -- 84
2020-03-11 08:00:00 5.8 0 Calma 8 Sur 0 -- -- 81
2020-03-11 07:00:00 6.2 0 Calma 6 Sudeste 0 -- -- 77
2020-03-11 06:00:00 6.4 3 Sudeste 14 Sur 0 -- -- 78
2020-03-11 05:00:00 6.9 9 Sur 16 Sur 0 -- -- 76
2020-03-11 04:00:00 7.2 10 Sur 14 Sur 0 -- -- 73
2020-03-11 03:00:00 8.5 4 Sur 6 Sur 0 -- -- 70
2020-03-11 02:00:00 10 2 Nordeste 12 Sudoeste 0 -- -- 64
2020-03-11 01:00:00 11.2 9 Sudoeste 15 Sudoeste 0 -- -- 62
2020-03-11 00:00:00 10.9 7 Sudoeste 17 Sudoeste 0 -- -- 63
2020-03-10 23:00:00 12.8 12 Sudoeste 26 Sudoeste 0 -- -- 57
2020-03-10 22:00:00 12.7 15 Sudoeste 24 Sudoeste 0 -- -- 58
2020-03-10 21:00:00 12.1 10 Sur 17 Sur 0 -- -- 58
2020-03-10 20:00:00 14.9 11 Sudoeste 19 Sudoeste 0 -- -- 48
2020-03-10 19:00:00 16.3 8 Sudoeste 19 Oeste 0 -- -- 45
2020-03-10 18:00:00 17.4 12 Sudoeste 23 Sudoeste 0 -- -- 44
2020-03-10 17:00:00 18.2 9 Oeste 20 Oeste 0 -- -- 41
2020-03-10 16:00:00 18.8 9 Oeste 21 Sudoeste 0 -- -- 42
2020-03-10 15:00:00 18.7 10 Oeste 21 Oeste 0 -- -- 44
2020-03-10 14:00:00 17 6 Sudoeste 14 Oeste 0 -- -- 45
2020-03-10 13:00:00 14.9 4 Oeste 13 Oeste 0 -- -- 49
2020-03-10 12:00:00 13.3 7 Noroeste 16 Noroeste 0 -- -- 49
2020-03-10 11:00:00 11.6 4 Oeste 19 Norte 0 -- -- 53
2020-03-10 10:00:00 9.6 4 Noroeste 15 Noroeste 0 -- -- 56
2020-03-10 09:00:00 6.6 2 Este 6 Nordeste 0 -- -- 66
2020-03-10 08:00:00 4.8 0 Calma 11 Noroeste 0 -- -- 70
2020-03-10 07:00:00 5.2 6 Noroeste 17 Noroeste 0 -- -- 69
2020-03-10 06:00:00 5.2 9 Noroeste 20 Noroeste 0 -- -- 69
2020-03-10 05:00:00 5.2 9 Noroeste 23 Noroeste 0 -- -- 66
2020-03-10 04:00:00 4.6 8 Noroeste 18 Noroeste 0 -- -- 64
2020-03-10 03:00:00 4.3 8 Noroeste 18 Noroeste 0 -- -- 66
2020-03-10 02:00:00 4.9 10 Noroeste 21 Norte 0 -- -- 66
2020-03-10 01:00:00 5 7 Noroeste 17 Norte 0 -- -- 69
2020-03-10 00:00:00 5.3 8 Norte 15 Noroeste 0 -- -- 67
2020-03-09 23:00:00 5.5 6 Norte 19 Noroeste 0 -- -- 64
2020-03-09 22:00:00 6.2 6 Noroeste 24 Norte 0 -- -- 60
2020-03-09 21:00:00 6.9 12 Noroeste 30 Noroeste 0 -- -- 54
2020-03-09 20:00:00 7.9 14 Noroeste 30 Oeste 0 -- -- 56
2020-03-09 19:00:00 9 13 Noroeste 28 Noroeste 0 -- -- 53
2020-03-09 18:00:00 9.7 10 Noroeste 25 Norte 0 -- -- 53
2020-03-09 17:00:00 10.7 12 Norte 26 Norte 0 -- -- 47
2020-03-09 16:00:00 10.9 13 Noroeste 31 Norte 0 -- -- 49
2020-03-09 15:00:00 10.7 15 Norte 29 Norte 0 -- -- 49
2020-03-09 14:00:00 10 14 Norte 31 Noroeste 0 -- -- 53
2020-03-09 13:00:00 8.7 15 Noroeste 30 Norte 0 -- -- 61
2020-03-09 12:00:00 7.5 16 Norte 28 Norte 0 -- -- 67
2020-03-09 11:00:00 5.8 12 Noroeste 28 Noroeste 0 -- -- 77
2020-03-09 10:00:00 4.2 6 Noroeste 18 Noroeste 0 -- -- 85
2020-03-09 09:00:00 3.2 6 Norte 19 Noroeste 0 -- -- 88
2020-03-09 08:00:00 2.9 8 Noroeste 32 Norte 0 -- -- 87
2020-03-09 07:00:00 3.2 14 Noroeste 32 Noroeste 0 -- -- 84
2020-03-09 06:00:00 3.6 12 Noroeste 24 Noroeste 0 -- -- 84
2020-03-09 05:00:00 4.4 11 Noroeste 23 Noroeste 0 -- -- 84
2020-03-09 04:00:00 4.6 8 Oeste 26 Noroeste 0 -- -- 85
2020-03-09 03:00:00 4.5 10 Noroeste 18 Oeste 0 -- -- 86
2020-03-09 02:00:00 4 4 Oeste 9 Sudoeste 0 -- -- 84
2020-03-09 01:00:00 4.4 8 Sudoeste 17 Sudoeste 0 -- -- 79
2020-03-09 00:00:00 5.5 5 Oeste 12 Oeste 0 -- -- 73